EGEO/OBN METAR and TAF weather

Enter ICAO airport designator
Station Type Date Time Source
EGEO METAR 2020/06/03 11:50 UTC NOAA

EGEO 031150Z 35016KT 9999 FEW045 13/04 Q1017


Station Type Date Time Source
EGEO Decoded METAR 2020/06/03 11:50 UTC NOAA

Station name not available
Jun 03, 2020 - 07:50 AM EDT / 2020.06.03 1150 UTC
Wind: from the N (350 degrees) at 18 MPH (16 KT):0
Visibility: greater than 7 mile(s):0
Sky conditions: mostly clear
Temperature: 55 F (13 C)
Dew Point: 39 F (4 C)
Relative Humidity: 54%
Pressure (altimeter): 30.03 in. Hg (1017 hPa)
ob: EGEO 031150Z 35016KT 9999 FEW045 13/04 Q1017
cycle: 12

Station Type Date Time Source
EGEO TAF UTC NOAA

Error!

Example: see airport list